sensor_id;sensor_type;location;lat;lon;timestamp;temperature;humidity
34137;DHT22;20414;50.860;4.382;2022-07-23T07:22:49;25.90;52.10
34137;DHT22;20414;50.860;4.382;2022-07-23T07:28:37;25.90;52.10
34137;DHT22;20414;50.860;4.382;2022-07-23T07:31:04;25.90;52.10
34137;DHT22;20414;50.860;4.382;2022-07-23T07:33:37;25.90;52.10
34137;DHT22;20414;50.860;4.382;2022-07-23T07:42:50;25.90;52.10
34137;DHT22;20414;50.860;4.382;2022-07-23T07:45:16;25.90;52.10
34137;DHT22;20414;50.860;4.382;2022-07-23T07:47:42;25.90;52.10
34137;DHT22;20414;50.860;4.382;2022-07-23T07:53:30;25.90;52.10
34137;DHT22;20414;50.860;4.382;2022-07-23T07:56:01;25.90;52.10
34137;DHT22;20414;50.860;4.382;2022-07-23T07:58:27;25.90;52.10
34137;DHT22;20414;50.860;4.382;2022-07-23T08:00:52;25.90;52.10
34137;DHT22;20414;50.860;4.382;2022-07-23T08:03:18;25.90;52.00
34137;DHT22;20414;50.860;4.382;2022-07-23T08:05:44;25.90;52.10
34137;DHT22;20414;50.860;4.382;2022-07-23T08:08:10;25.90;52.10
34137;DHT22;20414;50.860;4.382;2022-07-23T08:10:41;25.90;52.10
34137;DHT22;20414;50.860;4.382;2022-07-23T08:32:46;25.90;52.00
34137;DHT22;20414;50.860;4.382;2022-07-23T08:35:12;25.90;52.00
34137;DHT22;20414;50.860;4.382;2022-07-23T08:37:44;25.90;52.10
34137;DHT22;20414;50.860;4.382;2022-07-23T08:40:10;25.90;52.10
34137;DHT22;20414;50.860;4.382;2022-07-23T08:42:37;25.90;52.10
34137;DHT22;20414;50.860;4.382;2022-07-23T08:45:04;25.90;52.10
34137;DHT22;20414;50.860;4.382;2022-07-23T08:47:37;25.90;52.10
34137;DHT22;20414;50.860;4.382;2022-07-23T08:50:04;25.90;52.10
34137;DHT22;20414;50.860;4.382;2022-07-23T08:52:30;25.90;52.10
34137;DHT22;20414;50.860;4.382;2022-07-23T08:54:57;25.90;52.10
34137;DHT22;20414;50.860;4.382;2022-07-23T08:57:22;25.90;52.00
34137;DHT22;20414;50.860;4.382;2022-07-23T08:59:48;25.90;52.00
34137;DHT22;20414;50.860;4.382;2022-07-23T09:02:14;25.90;52.10
34137;DHT22;20414;50.860;4.382;2022-07-23T09:04:40;25.90;52.10
34137;DHT22;20414;50.860;4.382;2022-07-23T09:07:06;25.90;52.10
34137;DHT22;20414;50.860;4.382;2022-07-23T09:09:33;25.90;52.10
34137;DHT22;20414;50.860;4.382;2022-07-23T09:12:04;25.90;52.10
34137;DHT22;20414;50.860;4.382;2022-07-23T09:14:56;25.90;52.10
34137;DHT22;20414;50.860;4.382;2022-07-23T09:17:39;25.90;52.00
34137;DHT22;20414;50.860;4.382;2022-07-23T09:20:13;25.90;52.00
34137;DHT22;20414;50.860;4.382;2022-07-23T09:22:47;25.90;52.10
34137;DHT22;20414;50.860;4.382;2022-07-23T09:25:18;25.90;52.10
34137;DHT22;20414;50.860;4.382;2022-07-23T09:27:56;25.90;52.00
34137;DHT22;20414;50.860;4.382;2022-07-23T09:30:27;25.90;52.00
34137;DHT22;20414;50.860;4.382;2022-07-23T09:33:11;25.90;52.00
34137;DHT22;20414;50.860;4.382;2022-07-23T09:35:50;25.90;52.00
34137;DHT22;20414;50.860;4.382;2022-07-23T09:38:17;25.90;52.00
34137;DHT22;20414;50.860;4.382;2022-07-23T09:40:44;26.00;52.10
34137;DHT22;20414;50.860;4.382;2022-07-23T09:43:11;25.90;52.60
34137;DHT22;20414;50.860;4.382;2022-07-23T09:45:37;25.90;52.00
34137;DHT22;20414;50.860;4.382;2022-07-23T09:48:12;26.00;52.00
34137;DHT22;20414;50.860;4.382;2022-07-23T09:50:40;25.90;52.00
34137;DHT22;20414;50.860;4.382;2022-07-23T09:53:06;25.90;51.90
34137;DHT22;20414;50.860;4.382;2022-07-23T09:55:33;26.00;52.00
34137;DHT22;20414;50.860;4.382;2022-07-23T09:58:03;25.90;51.90
34137;DHT22;20414;50.860;4.382;2022-07-23T10:00:30;25.90;51.90
34137;DHT22;20414;50.860;4.382;2022-07-23T10:02:57;25.90;52.00
34137;DHT22;20414;50.860;4.382;2022-07-23T10:05:24;26.00;52.00
34137;DHT22;20414;50.860;4.382;2022-07-23T10:07:51;25.90;51.90
34137;DHT22;20414;50.860;4.382;2022-07-23T10:10:17;25.90;51.90
34137;DHT22;20414;50.860;4.382;2022-07-23T10:12:44;26.00;52.00
34137;DHT22;20414;50.860;4.382;2022-07-23T10:15:22;26.00;52.00
34137;DHT22;20414;50.860;4.382;2022-07-23T10:17:50;26.00;52.00
34137;DHT22;20414;50.860;4.382;2022-07-23T10:20:18;26.00;52.00
34137;DHT22;20414;50.860;4.382;2022-07-23T10:23:42;26.00;52.00
34137;DHT22;20414;50.860;4.382;2022-07-23T10:25:55;26.00;52.50
34137;DHT22;20414;50.860;4.382;2022-07-23T10:33:45;25.90;51.90
34137;DHT22;20414;50.860;4.382;2022-07-23T10:39:04;26.00;51.90
34137;DHT22;20414;50.860;4.382;2022-07-23T10:41:36;26.00;51.90
34137;DHT22;20414;50.860;4.382;2022-07-23T10:46:35;26.00;52.00
34137;DHT22;20414;50.860;4.382;2022-07-23T10:49:21;26.00;52.00
34137;DHT22;20414;50.860;4.382;2022-07-23T10:52:20;26.00;52.00
34137;DHT22;20414;50.860;4.382;2022-07-23T10:57:28;26.00;52.00
34137;DHT22;20414;50.860;4.382;2022-07-23T11:02:43;26.00;51.90
34137;DHT22;20414;50.860;4.382;2022-07-23T11:05:14;26.00;51.90
34137;DHT22;20414;50.860;4.382;2022-07-23T11:10:42;26.00;51.90
34137;DHT22;20414;50.860;4.382;2022-07-23T11:26:55;26.00;51.90
34137;DHT22;20414;50.860;4.382;2022-07-23T11:31:57;26.00;51.90
34137;DHT22;20414;50.860;4.382;2022-07-23T11:34:33;26.00;51.90
34137;DHT22;20414;50.860;4.382;2022-07-23T11:37:00;26.00;51.90
34137;DHT22;20414;50.860;4.382;2022-07-23T11:39:28;26.00;52.50
34137;DHT22;20414;50.860;4.382;2022-07-23T11:41:55;26.00;51.90
34137;DHT22;20414;50.860;4.382;2022-07-23T11:44:38;26.00;51.90
34137;DHT22;20414;50.860;4.382;2022-07-23T11:47:05;26.00;51.90
34137;DHT22;20414;50.860;4.382;2022-07-23T11:49:31;26.00;51.90
34137;DHT22;20414;50.860;4.382;2022-07-23T11:52:05;26.00;51.80
34137;DHT22;20414;50.860;4.382;2022-07-23T11:54:33;26.00;51.80
34137;DHT22;20414;50.860;4.382;2022-07-23T11:57:00;26.00;51.80
34137;DHT22;20414;50.860;4.382;2022-07-23T11:59:30;26.00;51.80
34137;DHT22;20414;50.860;4.382;2022-07-23T12:02:03;26.00;51.90
34137;DHT22;20414;50.860;4.382;2022-07-23T12:04:46;26.00;51.80
34137;DHT22;20414;50.860;4.382;2022-07-23T12:07:37;26.10;51.90
34137;DHT22;20414;50.860;4.382;2022-07-23T12:12:38;26.00;51.80
34137;DHT22;20414;50.860;4.382;2022-07-23T12:15:05;26.00;52.40
34137;DHT22;20414;50.860;4.382;2022-07-23T12:17:35;26.00;51.80
34137;DHT22;20414;50.860;4.382;2022-07-23T12:20:04;26.00;51.80
34137;DHT22;20414;50.860;4.382;2022-07-23T12:22:40;26.00;51.80
34137;DHT22;20414;50.860;4.382;2022-07-23T12:25:11;26.00;51.80
34137;DHT22;20414;50.860;4.382;2022-07-23T12:27:37;26.10;51.90
34137;DHT22;20414;50.860;4.382;2022-07-23T12:30:27;26.00;51.90
34137;DHT22;20414;50.860;4.382;2022-07-23T12:32:55;26.00;51.80
34137;DHT22;20414;50.860;4.382;2022-07-23T12:35:22;26.00;51.80
34137;DHT22;20414;50.860;4.382;2022-07-23T12:37:50;26.00;51.80
34137;DHT22;20414;50.860;4.382;2022-07-23T12:42:49;26.10;51.90
34137;DHT22;20414;50.860;4.382;2022-07-23T12:45:18;26.10;51.90
34137;DHT22;20414;50.860;4.382;2022-07-23T12:47:53;26.00;51.80
34137;DHT22;20414;50.860;4.382;2022-07-23T12:53:20;26.00;51.80
34137;DHT22;20414;50.860;4.382;2022-07-23T12:55:46;26.00;51.80
34137;DHT22;20414;50.860;4.382;2022-07-23T12:58:20;26.10;51.90
34137;DHT22;20414;50.860;4.382;2022-07-23T13:00:57;26.10;51.90
34137;DHT22;20414;50.860;4.382;2022-07-23T13:05:55;26.10;51.90
34137;DHT22;20414;50.860;4.382;2022-07-23T13:08:22;26.10;51.90
34137;DHT22;20414;50.860;4.382;2022-07-23T13:10:48;26.10;51.90
34137;DHT22;20414;50.860;4.382;2022-07-23T13:13:17;26.10;51.80
34137;DHT22;20414;50.860;4.382;2022-07-23T13:15:43;26.10;51.80
34137;DHT22;20414;50.860;4.382;2022-07-23T13:18:09;26.10;51.80
34137;DHT22;20414;50.860;4.382;2022-07-23T13:20:35;26.10;51.80
34137;DHT22;20414;50.860;4.382;2022-07-23T13:23:01;26.10;51.80
34137;DHT22;20414;50.860;4.382;2022-07-23T13:25:27;26.10;51.80
34137;DHT22;20414;50.860;4.382;2022-07-23T13:27:53;26.10;51.80
34137;DHT22;20414;50.860;4.382;2022-07-23T13:30:19;26.10;51.80
34137;DHT22;20414;50.860;4.382;2022-07-23T13:32:44;26.10;51.80
34137;DHT22;20414;50.860;4.382;2022-07-23T13:35:10;26.10;51.90
34137;DHT22;20414;50.860;4.382;2022-07-23T13:37:37;26.10;51.80
34137;DHT22;20414;50.860;4.382;2022-07-23T13:40:03;26.10;51.80
34137;DHT22;20414;50.860;4.382;2022-07-23T13:42:30;26.10;51.80
34137;DHT22;20414;50.860;4.382;2022-07-23T13:44:55;26.10;51.80
34137;DHT22;20414;50.860;4.382;2022-07-23T13:47:21;26.10;51.80
34137;DHT22;20414;50.860;4.382;2022-07-23T13:49:47;26.10;51.80
34137;DHT22;20414;50.860;4.382;2022-07-23T13:52:13;26.10;51.80
34137;DHT22;20414;50.860;4.382;2022-07-23T13:54:38;26.10;51.80
34137;DHT22;20414;50.860;4.382;2022-07-23T13:57:04;26.10;51.80
34137;DHT22;20414;50.860;4.382;2022-07-23T13:59:30;26.10;51.80
34137;DHT22;20414;50.860;4.382;2022-07-23T14:01:56;26.10;51.80
34137;DHT22;20414;50.860;4.382;2022-07-23T14:04:22;26.10;51.80
34137;DHT22;20414;50.860;4.382;2022-07-23T14:06:48;26.10;51.80
34137;DHT22;20414;50.860;4.382;2022-07-23T14:09:13;26.10;51.80
34137;DHT22;20414;50.860;4.382;2022-07-23T14:11:39;26.10;52.00
34137;DHT22;20414;50.860;4.382;2022-07-23T14:14:05;26.10;51.80
34137;DHT22;20414;50.860;4.382;2022-07-23T14:16:31;26.10;51.80
34137;DHT22;20414;50.860;4.382;2022-07-23T14:18:56;26.10;51.80
34137;DHT22;20414;50.860;4.382;2022-07-23T14:21:23;26.10;51.80
34137;DHT22;20414;50.860;4.382;2022-07-23T14:23:49;26.10;51.80
34137;DHT22;20414;50.860;4.382;2022-07-23T14:26:16;26.20;51.90
34137;DHT22;20414;50.860;4.382;2022-07-23T14:28:42;26.10;51.80
34137;DHT22;20414;50.860;4.382;2022-07-23T14:31:08;26.10;51.80
34137;DHT22;20414;50.860;4.382;2022-07-23T14:33:38;26.10;52.40
34137;DHT22;20414;50.860;4.382;2022-07-23T14:36:04;26.10;51.70
34137;DHT22;20414;50.860;4.382;2022-07-23T14:38:29;26.10;51.70
34137;DHT22;20414;50.860;4.382;2022-07-23T14:40:57;26.10;51.70
34137;DHT22;20414;50.860;4.382;2022-07-23T14:43:23;26.10;51.70
34137;DHT22;20414;50.860;4.382;2022-07-23T14:45:51;26.20;51.80
34137;DHT22;20414;50.860;4.382;2022-07-23T14:48:17;26.20;51.80
34137;DHT22;20414;50.860;4.382;2022-07-23T14:50:46;26.20;51.80
34137;DHT22;20414;50.860;4.382;2022-07-23T14:53:11;26.20;51.80
34137;DHT22;20414;50.860;4.382;2022-07-23T14:55:40;26.10;51.80
34137;DHT22;20414;50.860;4.382;2022-07-23T14:58:06;26.20;51.80
34137;DHT22;20414;50.860;4.382;2022-07-23T15:00:32;26.10;51.70
34137;DHT22;20414;50.860;4.382;2022-07-23T15:02:58;26.20;51.80
34137;DHT22;20414;50.860;4.382;2022-07-23T15:05:24;26.20;51.80
34137;DHT22;20414;50.860;4.382;2022-07-23T15:07:50;26.20;51.80
34137;DHT22;20414;50.860;4.382;2022-07-23T15:10:16;26.20;51.80
34137;DHT22;20414;50.860;4.382;2022-07-23T15:12:42;26.20;51.70
34137;DHT22;20414;50.860;4.382;2022-07-23T15:15:09;26.20;51.70
34137;DHT22;20414;50.860;4.382;2022-07-23T15:17:38;26.20;51.70
34137;DHT22;20414;50.860;4.382;2022-07-23T15:20:05;26.20;51.70
34137;DHT22;20414;50.860;4.382;2022-07-23T15:22:31;26.20;51.70
34137;DHT22;20414;50.860;4.382;2022-07-23T15:24:57;26.20;52.30
34137;DHT22;20414;50.860;4.382;2022-07-23T15:27:23;26.20;51.70
34137;DHT22;20414;50.860;4.382;2022-07-23T15:29:48;26.20;51.70
34137;DHT22;20414;50.860;4.382;2022-07-23T15:32:14;26.20;51.70
34137;DHT22;20414;50.860;4.382;2022-07-23T15:34:43;26.20;52.30
34137;DHT22;20414;50.860;4.382;2022-07-23T15:37:08;26.20;51.70
34137;DHT22;20414;50.860;4.382;2022-07-23T15:39:34;26.20;51.70
34137;DHT22;20414;50.860;4.382;2022-07-23T15:42:01;26.20;51.70
34137;DHT22;20414;50.860;4.382;2022-07-23T15:44:27;26.20;51.70
34137;DHT22;20414;50.860;4.382;2022-07-23T15:46:54;26.20;51.70
34137;DHT22;20414;50.860;4.382;2022-07-23T15:49:21;26.20;51.70
34137;DHT22;20414;50.860;4.382;2022-07-23T15:51:49;26.20;51.70
34137;DHT22;20414;50.860;4.382;2022-07-23T15:54:15;26.20;51.70
34137;DHT22;20414;50.860;4.382;2022-07-23T15:56:41;26.20;51.70
34137;DHT22;20414;50.860;4.382;2022-07-23T15:59:08;26.20;51.70
34137;DHT22;20414;50.860;4.382;2022-07-23T16:01:34;26.20;51.70
34137;DHT22;20414;50.860;4.382;2022-07-23T16:04:00;26.20;51.70
34137;DHT22;20414;50.860;4.382;2022-07-23T16:06:26;26.20;51.70
34137;DHT22;20414;50.860;4.382;2022-07-23T16:08:55;26.20;51.60
34137;DHT22;20414;50.860;4.382;2022-07-23T16:11:22;26.20;51.60
34137;DHT22;20414;50.860;4.382;2022-07-23T16:13:47;26.20;51.60
34137;DHT22;20414;50.860;4.382;2022-07-23T16:16:13;26.20;51.60
34137;DHT22;20414;50.860;4.382;2022-07-23T16:18:39;26.30;51.60
34137;DHT22;20414;50.860;4.382;2022-07-23T16:21:24;26.30;51.60
34137;DHT22;20414;50.860;4.382;2022-07-23T16:23:50;26.30;51.60
34137;DHT22;20414;50.860;4.382;2022-07-23T16:26:17;26.30;51.60
34137;DHT22;20414;50.860;4.382;2022-07-23T16:28:48;26.30;51.60
34137;DHT22;20414;50.860;4.382;2022-07-23T16:31:14;26.30;51.60
34137;DHT22;20414;50.860;4.382;2022-07-23T16:33:40;26.30;51.60
34137;DHT22;20414;50.860;4.382;2022-07-23T16:36:07;26.30;51.60
34137;DHT22;20414;50.860;4.382;2022-07-23T16:38:34;26.30;51.70
34137;DHT22;20414;50.860;4.382;2022-07-23T16:41:01;26.30;51.70
34137;DHT22;20414;50.860;4.382;2022-07-23T16:43:27;26.30;51.70
34137;DHT22;20414;50.860;4.382;2022-07-23T16:45:54;26.30;51.70
34137;DHT22;20414;50.860;4.382;2022-07-23T16:48:19;26.30;51.70
34137;DHT22;20414;50.860;4.382;2022-07-23T16:50:46;26.30;51.70
34137;DHT22;20414;50.860;4.382;2022-07-23T16:53:12;26.30;51.70
34137;DHT22;20414;50.860;4.382;2022-07-23T16:55:38;26.30;51.70
34137;DHT22;20414;50.860;4.382;2022-07-23T16:58:04;26.30;51.70
34137;DHT22;20414;50.860;4.382;2022-07-23T17:00:31;26.30;52.00
34137;DHT22;20414;50.860;4.382;2022-07-23T17:02:57;26.30;51.70
34137;DHT22;20414;50.860;4.382;2022-07-23T17:05:23;26.30;52.30
34137;DHT22;20414;50.860;4.382;2022-07-23T17:07:49;26.30;51.60
34137;DHT22;20414;50.860;4.382;2022-07-23T17:10:16;26.30;51.60
34137;DHT22;20414;50.860;4.382;2022-07-23T17:12:43;26.30;51.60
34137;DHT22;20414;50.860;4.382;2022-07-23T17:15:08;26.30;51.60
34137;DHT22;20414;50.860;4.382;2022-07-23T17:17:35;26.30;51.60
34137;DHT22;20414;50.860;4.382;2022-07-23T17:20:04;26.30;51.60
34137;DHT22;20414;50.860;4.382;2022-07-23T17:22:33;26.30;51.60
34137;DHT22;20414;50.860;4.382;2022-07-23T17:24:59;26.30;51.60
34137;DHT22;20414;50.860;4.382;2022-07-23T17:27:25;26.30;51.60
34137;DHT22;20414;50.860;4.382;2022-07-23T17:29:51;26.30;51.60
34137;DHT22;20414;50.860;4.382;2022-07-23T17:32:17;26.40;51.70
34137;DHT22;20414;50.860;4.382;2022-07-23T17:34:44;26.30;51.60
34137;DHT22;20414;50.860;4.382;2022-07-23T17:37:10;26.40;51.70
34137;DHT22;20414;50.860;4.382;2022-07-23T17:39:36;26.40;51.60
34137;DHT22;20414;50.860;4.382;2022-07-23T17:42:01;26.40;51.60
34137;DHT22;20414;50.860;4.382;2022-07-23T17:44:27;26.30;51.60
34137;DHT22;20414;50.860;4.382;2022-07-23T17:46:53;26.40;51.60
34137;DHT22;20414;50.860;4.382;2022-07-23T17:49:19;26.40;51.70
34137;DHT22;20414;50.860;4.382;2022-07-23T17:51:47;26.40;51.70
34137;DHT22;20414;50.860;4.382;2022-07-23T17:54:13;26.40;51.60
34137;DHT22;20414;50.860;4.382;2022-07-23T17:56:42;26.40;51.60
34137;DHT22;20414;50.860;4.382;2022-07-23T17:59:08;26.40;51.60
34137;DHT22;20414;50.860;4.382;2022-07-23T18:01:35;26.40;51.60
34137;DHT22;20414;50.860;4.382;2022-07-23T18:04:04;26.40;51.60
34137;DHT22;20414;50.860;4.382;2022-07-23T18:06:30;26.40;51.60
34137;DHT22;20414;50.860;4.382;2022-07-23T18:08:56;26.40;51.60
34137;DHT22;20414;50.860;4.382;2022-07-23T18:11:22;26.40;51.60
34137;DHT22;20414;50.860;4.382;2022-07-23T18:13:50;26.40;51.60
34137;DHT22;20414;50.860;4.382;2022-07-23T18:16:16;26.40;51.60
34137;DHT22;20414;50.860;4.382;2022-07-23T18:18:42;26.40;51.60
34137;DHT22;20414;50.860;4.382;2022-07-23T18:21:08;26.40;51.50
34137;DHT22;20414;50.860;4.382;2022-07-23T18:23:38;26.50;51.60
34137;DHT22;20414;50.860;4.382;2022-07-23T18:26:04;26.40;51.50
34137;DHT22;20414;50.860;4.382;2022-07-23T18:28:30;26.40;51.50
34137;DHT22;20414;50.860;4.382;2022-07-23T18:30:57;26.50;51.60
34137;DHT22;20414;50.860;4.382;2022-07-23T18:33:23;26.40;51.50
34137;DHT22;20414;50.860;4.382;2022-07-23T18:35:49;26.50;51.60
34137;DHT22;20414;50.860;4.382;2022-07-23T18:38:15;26.50;51.60
34137;DHT22;20414;50.860;4.382;2022-07-23T18:40:42;26.50;51.50
34137;DHT22;20414;50.860;4.382;2022-07-23T18:43:09;26.50;51.50
34137;DHT22;20414;50.860;4.382;2022-07-23T18:45:35;26.50;51.50
34137;DHT22;20414;50.860;4.382;2022-07-23T18:48:01;26.50;51.50
34137;DHT22;20414;50.860;4.382;2022-07-23T18:50:29;26.50;51.50
34137;DHT22;20414;50.860;4.382;2022-07-23T18:52:58;26.50;51.50
34137;DHT22;20414;50.860;4.382;2022-07-23T18:55:24;26.50;51.50
34137;DHT22;20414;50.860;4.382;2022-07-23T18:57:49;26.50;51.50
34137;DHT22;20414;50.860;4.382;2022-07-23T19:00:15;26.50;51.50
34137;DHT22;20414;50.860;4.382;2022-07-23T19:02:42;26.50;51.50
34137;DHT22;20414;50.860;4.382;2022-07-23T19:05:09;26.50;51.50
34137;DHT22;20414;50.860;4.382;2022-07-23T19:07:36;26.50;51.50
34137;DHT22;20414;50.860;4.382;2022-07-23T19:10:04;26.50;51.50
34137;DHT22;20414;50.860;4.382;2022-07-23T19:12:31;26.50;51.50
34137;DHT22;20414;50.860;4.382;2022-07-23T19:14:59;26.50;51.40
34137;DHT22;20414;50.860;4.382;2022-07-23T19:17:27;26.50;51.40
34137;DHT22;20414;50.860;4.382;2022-07-23T19:19:56;26.50;51.40
34137;DHT22;20414;50.860;4.382;2022-07-23T19:22:23;26.50;51.40
34137;DHT22;20414;50.860;4.382;2022-07-23T19:24:54;26.50;51.40
34137;DHT22;20414;50.860;4.382;2022-07-23T19:27:20;26.50;51.40
34137;DHT22;20414;50.860;4.382;2022-07-23T19:29:46;26.50;51.40
34137;DHT22;20414;50.860;4.382;2022-07-23T19:32:12;26.50;51.40
34137;DHT22;20414;50.860;4.382;2022-07-23T19:34:38;26.50;51.40
34137;DHT22;20414;50.860;4.382;2022-07-23T19:37:05;26.60;51.40
34137;DHT22;20414;50.860;4.382;2022-07-23T19:39:41;26.50;51.40
34137;DHT22;20414;50.860;4.382;2022-07-23T19:42:07;26.60;51.40
34137;DHT22;20414;50.860;4.382;2022-07-23T19:44:33;26.50;51.40
34137;DHT22;20414;50.860;4.382;2022-07-23T19:46:59;26.50;51.40
34137;DHT22;20414;50.860;4.382;2022-07-23T19:49:25;26.60;51.40
34137;DHT22;20414;50.860;4.382;2022-07-23T19:51:51;26.50;51.30
34137;DHT22;20414;50.860;4.382;2022-07-23T19:54:17;26.60;51.40
34137;DHT22;20414;50.860;4.382;2022-07-23T19:56:46;26.50;51.40
34137;DHT22;20414;50.860;4.382;2022-07-23T19:59:14;26.60;51.40
34137;DHT22;20414;50.860;4.382;2022-07-23T20:01:40;26.60;51.30
34137;DHT22;20414;50.860;4.382;2022-07-23T20:04:08;26.50;51.30
34137;DHT22;20414;50.860;4.382;2022-07-23T20:06:37;26.50;51.30
34137;DHT22;20414;50.860;4.382;2022-07-23T20:09:03;26.50;51.30
34137;DHT22;20414;50.860;4.382;2022-07-23T20:11:29;26.60;51.40
34137;DHT22;20414;50.860;4.382;2022-07-23T20:13:55;26.60;51.30
34137;DHT22;20414;50.860;4.382;2022-07-23T20:16:21;26.60;51.30
34137;DHT22;20414;50.860;4.382;2022-07-23T20:18:47;26.60;51.40
34137;DHT22;20414;50.860;4.382;2022-07-23T20:21:12;26.50;51.30
34137;DHT22;20414;50.860;4.382;2022-07-23T20:23:41;26.60;51.30
34137;DHT22;20414;50.860;4.382;2022-07-23T20:26:09;26.60;51.30
34137;DHT22;20414;50.860;4.382;2022-07-23T20:28:38;26.60;51.30
34137;DHT22;20414;50.860;4.382;2022-07-23T20:31:04;26.60;51.30
34137;DHT22;20414;50.860;4.382;2022-07-23T20:33:48;26.60;51.30
34137;DHT22;20414;50.860;4.382;2022-07-23T20:36:14;26.60;51.30
34137;DHT22;20414;50.860;4.382;2022-07-23T20:38:40;26.60;51.30
34137;DHT22;20414;50.860;4.382;2022-07-23T20:41:06;26.60;51.40
34137;DHT22;20414;50.860;4.382;2022-07-23T20:43:35;26.60;51.30
34137;DHT22;20414;50.860;4.382;2022-07-23T20:49:07;26.60;51.30
34137;DHT22;20414;50.860;4.382;2022-07-23T20:51:33;26.60;51.30
34137;DHT22;20414;50.860;4.382;2022-07-23T20:53:59;26.60;51.40
34137;DHT22;20414;50.860;4.382;2022-07-23T20:56:25;26.60;51.30
34137;DHT22;20414;50.860;4.382;2022-07-23T20:58:51;26.60;51.30
34137;DHT22;20414;50.860;4.382;2022-07-23T21:01:18;26.60;51.30
34137;DHT22;20414;50.860;4.382;2022-07-23T21:03:44;26.60;51.30
34137;DHT22;20414;50.860;4.382;2022-07-23T21:06:10;26.60;51.30
34137;DHT22;20414;50.860;4.382;2022-07-23T21:08:36;26.60;51.30
34137;DHT22;20414;50.860;4.382;2022-07-23T21:11:04;26.60;51.30
34137;DHT22;20414;50.860;4.382;2022-07-23T21:13:37;26.60;51.30
34137;DHT22;20414;50.860;4.382;2022-07-23T21:16:04;26.60;51.30
34137;DHT22;20414;50.860;4.382;2022-07-23T21:18:30;26.60;51.30
34137;DHT22;20414;50.860;4.382;2022-07-23T21:20:58;26.60;51.30
34137;DHT22;20414;50.860;4.382;2022-07-23T21:23:39;26.60;51.30
34137;DHT22;20414;50.860;4.382;2022-07-23T21:26:05;26.60;51.30
34137;DHT22;20414;50.860;4.382;2022-07-23T21:28:31;26.60;51.30
34137;DHT22;20414;50.860;4.382;2022-07-23T21:30:57;26.60;51.30
34137;DHT22;20414;50.860;4.382;2022-07-23T21:33:30;26.60;51.30
34137;DHT22;20414;50.860;4.382;2022-07-23T21:35:56;26.60;51.30
34137;DHT22;20414;50.860;4.382;2022-07-23T21:38:21;26.60;51.30
34137;DHT22;20414;50.860;4.382;2022-07-23T21:40:49;26.60;51.30
34137;DHT22;20414;50.860;4.382;2022-07-23T21:43:15;26.60;51.30
34137;DHT22;20414;50.860;4.382;2022-07-23T21:45:41;26.60;51.30
34137;DHT22;20414;50.860;4.382;2022-07-23T21:48:07;26.60;51.30
34137;DHT22;20414;50.860;4.382;2022-07-23T21:50:33;26.60;51.30
34137;DHT22;20414;50.860;4.382;2022-07-23T21:52:59;26.60;51.30
34137;DHT22;20414;50.860;4.382;2022-07-23T21:55:24;26.60;51.30
34137;DHT22;20414;50.860;4.382;2022-07-23T21:57:53;26.60;51.30
34137;DHT22;20414;50.860;4.382;2022-07-23T22:00:22;26.60;51.30
34137;DHT22;20414;50.860;4.382;2022-07-23T22:02:54;26.60;51.30
34137;DHT22;20414;50.860;4.382;2022-07-23T22:05:20;26.60;51.30
34137;DHT22;20414;50.860;4.382;2022-07-23T22:07:46;26.60;51.30
34137;DHT22;20414;50.860;4.382;2022-07-23T22:10:13;26.60;51.30
34137;DHT22;20414;50.860;4.382;2022-07-23T22:12:40;26.60;51.30
34137;DHT22;20414;50.860;4.382;2022-07-23T22:15:12;26.60;51.30
34137;DHT22;20414;50.860;4.382;2022-07-23T22:17:39;26.60;51.30
34137;DHT22;20414;50.860;4.382;2022-07-23T22:20:06;26.60;51.30
34137;DHT22;20414;50.860;4.382;2022-07-23T22:22:42;26.60;51.20
34137;DHT22;20414;50.860;4.382;2022-07-23T22:25:09;26.60;51.20
34137;DHT22;20414;50.860;4.382;2022-07-23T22:28:18;26.60;51.30
34137;DHT22;20414;50.860;4.382;2022-07-23T22:34:47;26.60;51.20
34137;DHT22;20414;50.860;4.382;2022-07-23T22:37:15;26.60;51.20
34137;DHT22;20414;50.860;4.382;2022-07-23T22:39:41;26.60;51.30
34137;DHT22;20414;50.860;4.382;2022-07-23T22:42:07;26.60;51.20
34137;DHT22;20414;50.860;4.382;2022-07-23T22:44:38;26.60;51.20
34137;DHT22;20414;50.860;4.382;2022-07-23T22:47:04;26.60;51.20
34137;DHT22;20414;50.860;4.382;2022-07-23T22:49:30;26.60;51.30
34137;DHT22;20414;50.860;4.382;2022-07-23T22:51:55;26.60;51.20
34137;DHT22;20414;50.860;4.382;2022-07-23T22:54:21;26.60;51.20
34137;DHT22;20414;50.860;4.382;2022-07-23T22:56:47;26.60;51.20
34137;DHT22;20414;50.860;4.382;2022-07-23T22:59:13;26.60;51.20
34137;DHT22;20414;50.860;4.382;2022-07-23T23:01:40;26.70;51.30
34137;DHT22;20414;50.860;4.382;2022-07-23T23:10:49;26.60;51.20
34137;DHT22;20414;50.860;4.382;2022-07-23T23:46:57;26.60;51.20
